Time;durP1;ratioP1;P1;durP2;ratioP2;P2;SDS_P1;SDS_P2;PMS_P1;PMS_P2;Temp;Humidity;BMP_temperature;BMP_pressure;BME280_temperature;BME280_humidity;BME280_pressure;Samples;Min_cycle;Max_cycle;Signal;HPM_P1;HPM_P2
2022/07/13 00:01:12;;;;;;;7.70;5.53;;;20.40;99.90;;;;;;5057229;28;20460;-79
2022/07/13 00:03:38;;;;;;;9.60;5.32;;;20.30;99.90;;;;;;5041197;28;20045;-79
2022/07/13 00:06:03;;;;;;;6.32;4.90;;;20.30;99.90;;;;;;5058078;28;20119;-79
2022/07/13 00:08:29;;;;;;;8.57;5.40;;;20.30;99.90;;;;;;5075619;28;20657;-79
2022/07/13 00:10:55;;;;;;;8.35;5.43;;;20.40;99.90;;;;;;5057546;28;20055;-79
2022/07/13 00:13:20;;;;;;;5.97;5.38;;;20.40;99.90;;;;;;5057487;28;20442;-79
2022/07/13 00:15:46;;;;;;;5.95;5.35;;;20.40;99.90;;;;;;5074568;28;20040;-79
2022/07/13 00:18:11;;;;;;;7.43;5.47;;;20.40;99.90;;;;;;5058591;28;20598;-79
2022/07/13 00:20:37;;;;;;;7.07;6.00;;;20.40;99.90;;;;;;5057792;28;20037;-79
2022/07/13 00:23:03;;;;;;;6.68;5.97;;;20.40;99.90;;;;;;5058431;28;20040;-79
2022/07/13 00:25:28;;;;;;;8.82;6.13;;;20.40;99.90;;;;;;5058418;28;20389;-79
2022/07/13 00:27:54;;;;;;;8.45;5.90;;;20.40;99.90;;;;;;5058612;28;20137;-79
2022/07/13 00:30:20;;;;;;;8.07;5.18;;;20.40;99.90;;;;;;5058106;28;20055;-79
2022/07/13 00:32:46;;;;;;;5.72;5.03;;;20.40;99.90;;;;;;5057531;28;20040;-79
2022/07/13 00:35:11;;;;;;;6.63;5.45;;;20.50;99.90;;;;;;5058073;28;20067;-79
2022/07/13 00:37:37;;;;;;;12.98;6.00;;;20.40;99.90;;;;;;5041674;28;20036;-79
2022/07/13 00:40:03;;;;;;;6.88;5.10;;;20.40;99.90;;;;;;5057619;28;20043;-80
2022/07/13 00:42:29;;;;;;;6.72;5.13;;;20.40;99.90;;;;;;5058247;28;20043;-79
2022/07/13 00:44:54;;;;;;;6.32;5.68;;;20.40;99.90;;;;;;5057421;28;20036;-79
2022/07/13 00:47:20;;;;;;;6.88;5.63;;;20.40;99.90;;;;;;5058787;28;20434;-80
2022/07/13 00:49:46;;;;;;;9.15;5.90;;;20.40;99.90;;;;;;5058880;28;20487;-80
2022/07/13 00:52:12;;;;;;;7.70;5.78;;;20.40;99.90;;;;;;5059000;28;20033;-80
2022/07/13 00:54:41;;;;;;;8.02;5.80;;;20.40;99.90;;;;;;5058749;28;20549;-80
2022/07/13 00:57:12;;;;;;;10.50;5.55;;;20.40;99.90;;;;;;5058297;28;20058;-80
2022/07/13 00:59:39;;;;;;;8.80;5.80;;;20.40;99.90;;;;;;5057841;28;20040;-80
2022/07/13 01:02:04;;;;;;;6.72;6.03;;;20.40;99.90;;;;;;5058215;28;20395;-80
2022/07/13 01:04:30;;;;;;;7.80;5.70;;;20.30;99.90;;;;;;5059654;28;20044;-80
2022/07/13 01:06:56;;;;;;;12.10;5.35;;;20.40;99.90;;;;;;5057923;28;20048;-80
2022/07/13 01:09:26;;;;;;;8.02;5.35;;;20.30;99.90;;;;;;5057848;28;20114;-80
2022/07/13 01:11:52;;;;;;;8.80;5.38;;;20.40;99.90;;;;;;5041577;28;20036;-80
2022/07/13 01:14:19;;;;;;;8.90;5.57;;;20.40;99.90;;;;;;5057642;28;20491;-80
2022/07/13 01:16:45;;;;;;;8.68;6.43;;;20.30;99.90;;;;;;5041813;28;20055;-80
2022/07/13 01:19:12;;;;;;;9.52;7.03;;;20.20;99.90;;;;;;5058479;28;20123;-79
2022/07/13 01:21:44;;;;;;;7.13;6.40;;;20.30;99.90;;;;;;5058123;28;20036;-80
2022/07/13 01:24:11;;;;;;;7.78;5.72;;;20.30;99.90;;;;;;5058765;28;20047;-79
2022/07/13 01:26:38;;;;;;;8.38;6.85;;;20.30;99.90;;;;;;5058363;28;20055;-80
2022/07/13 01:29:05;;;;;;;8.25;5.75;;;20.30;99.90;;;;;;5058312;28;20044;-79
2022/07/13 01:31:39;;;;;;;6.18;5.43;;;20.30;99.90;;;;;;5057448;28;20041;-79
2022/07/13 01:34:06;;;;;;;10.68;6.03;;;20.40;99.90;;;;;;5058496;28;20096;-79
2022/07/13 01:36:34;;;;;;;9.32;5.47;;;20.30;99.90;;;;;;5058708;28;20446;-79
2022/07/13 01:38:59;;;;;;;6.28;5.65;;;20.30;99.90;;;;;;5058075;28;20522;-79
2022/07/13 01:41:28;;;;;;;7.68;6.03;;;20.30;99.90;;;;;;5058871;28;20052;-79
2022/07/13 01:43:53;;;;;;;5.88;5.28;;;20.30;99.90;;;;;;5041405;28;20036;-79
2022/07/13 01:46:19;;;;;;;7.22;5.22;;;20.30;99.90;;;;;;5058470;28;20040;-79
2022/07/13 01:48:45;;;;;;;13.25;5.70;;;20.30;99.90;;;;;;5057604;28;20481;-79
2022/07/13 01:51:10;;;;;;;8.85;6.25;;;20.30;99.90;;;;;;5058602;28;20040;-79
2022/07/13 01:53:36;;;;;;;7.38;5.72;;;20.30;99.90;;;;;;5056160;28;20124;-79
2022/07/13 01:56:02;;;;;;;7.88;5.50;;;20.30;99.90;;;;;;5054498;28;20044;-79
2022/07/13 01:58:27;;;;;;;7.70;5.45;;;20.30;99.90;;;;;;5037603;28;20037;-79
2022/07/13 02:00:53;;;;;;;11.20;5.53;;;20.30;99.90;;;;;;5037111;28;20051;-79
2022/07/13 02:03:19;;;;;;;6.85;5.65;;;20.20;99.90;;;;;;5054142;28;20562;-79
2022/07/13 02:05:45;;;;;;;6.35;5.32;;;20.20;99.90;;;;;;5053968;28;20139;-79
2022/07/13 02:08:11;;;;;;;7.53;5.95;;;20.20;99.90;;;;;;5054136;28;20055;-79
2022/07/13 02:10:37;;;;;;;6.47;5.40;;;20.20;99.90;;;;;;5071413;28;20476;-79
2022/07/13 02:13:11;;;;;;;8.68;5.82;;;20.30;99.90;;;;;;5052813;28;20048;-79
2022/07/13 02:15:37;;;;;;;8.65;5.50;;;20.30;99.90;;;;;;5053755;28;20032;-79
2022/07/13 02:18:04;;;;;;;8.45;5.57;;;20.20;99.90;;;;;;5068413;28;20062;-80
2022/07/13 02:20:31;;;;;;;7.75;5.50;;;20.20;99.90;;;;;;5077613;28;20020;-79
2022/07/13 02:22:56;;;;;;;15.15;6.35;;;20.30;99.90;;;;;;5078829;28;20033;-79
2022/07/13 02:25:22;;;;;;;7.53;5.50;;;20.30;99.90;;;;;;5056381;28;20046;-79
2022/07/13 02:27:48;;;;;;;5.93;5.10;;;20.30;99.90;;;;;;5052955;28;20048;-79
2022/07/13 02:30:15;;;;;;;6.30;5.20;;;20.40;99.90;;;;;;5052758;28;20067;-79
2022/07/13 02:32:42;;;;;;;6.38;5.60;;;20.40;99.90;;;;;;5053465;28;20044;-79
2022/07/13 02:35:09;;;;;;;6.80;5.25;;;20.40;99.90;;;;;;5053083;28;20041;-79
2022/07/13 02:37:35;;;;;;;6.55;5.40;;;20.40;99.90;;;;;;5053179;28;20036;-79
2022/07/13 02:40:00;;;;;;;7.85;5.53;;;20.40;99.90;;;;;;5053062;28;20123;-79
2022/07/13 02:42:26;;;;;;;7.90;5.75;;;20.40;99.90;;;;;;5053008;28;20048;-79
2022/07/13 02:44:52;;;;;;;7.22;5.55;;;20.40;99.90;;;;;;5053077;28;20076;-79
2022/07/13 02:47:18;;;;;;;8.48;5.78;;;20.40;99.90;;;;;;5052802;28;20043;-79
2022/07/13 02:49:44;;;;;;;7.85;6.15;;;20.40;99.90;;;;;;5052636;28;20056;-79
2022/07/13 02:52:10;;;;;;;9.18;5.70;;;20.40;99.90;;;;;;5052737;28;20460;-79
2022/07/13 02:54:36;;;;;;;8.23;5.50;;;20.40;99.90;;;;;;5052906;28;20042;-79
2022/07/13 02:57:01;;;;;;;7.13;5.55;;;20.40;99.90;;;;;;5052775;28;20461;-79
2022/07/13 02:59:30;;;;;;;8.77;5.40;;;20.40;99.90;;;;;;5052886;28;20441;-79
2022/07/13 03:01:56;;;;;;;7.93;5.40;;;20.40;99.90;;;;;;5053290;28;20036;-79
2022/07/13 03:04:21;;;;;;;8.90;5.90;;;20.50;99.90;;;;;;5070918;28;20047;-79
2022/07/13 03:06:47;;;;;;;9.65;5.75;;;20.40;99.90;;;;;;5053150;28;20480;-79
2022/07/13 03:09:13;;;;;;;8.57;5.50;;;20.40;99.90;;;;;;5053434;28;20041;-79
2022/07/13 03:11:38;;;;;;;7.53;5.85;;;20.40;99.90;;;;;;5052408;28;20610;-79
2022/07/13 03:14:04;;;;;;;9.57;5.65;;;20.40;99.90;;;;;;5036417;28;20043;-79
2022/07/13 03:16:29;;;;;;;8.60;5.90;;;20.40;99.90;;;;;;5036217;28;20510;-79
2022/07/13 03:18:55;;;;;;;8.55;5.65;;;20.40;99.90;;;;;;5052934;28;20044;-79
2022/07/13 03:21:21;;;;;;;6.88;5.43;;;20.40;99.90;;;;;;5036228;28;20041;-79
2022/07/13 03:23:46;;;;;;;8.13;6.13;;;20.40;99.90;;;;;;5053042;28;20166;-79
2022/07/13 03:26:12;;;;;;;9.25;5.75;;;20.40;99.90;;;;;;5056292;28;20049;-79
2022/07/13 03:28:37;;;;;;;8.27;5.78;;;20.30;99.90;;;;;;5056782;28;20430;-79
2022/07/13 03:31:03;;;;;;;10.02;5.22;;;20.30;99.90;;;;;;5056730;28;20036;-79
2022/07/13 03:33:28;;;;;;;9.30;5.85;;;20.30;99.90;;;;;;5040442;28;20072;-79
2022/07/13 03:35:54;;;;;;;9.02;6.20;;;20.20;99.90;;;;;;5056891;28;20044;-79
2022/07/13 03:38:20;;;;;;;8.05;6.00;;;20.20;99.90;;;;;;5075273;28;20048;-79
2022/07/13 03:40:47;;;;;;;8.43;6.10;;;20.20;99.90;;;;;;5056430;28;20041;-79
2022/07/13 03:43:12;;;;;;;9.00;6.53;;;20.20;99.90;;;;;;5056483;28;20520;-79
2022/07/13 03:45:38;;;;;;;12.38;6.55;;;20.20;99.90;;;;;;5056247;28;20119;-79
2022/07/13 03:48:05;;;;;;;11.85;6.57;;;20.10;99.90;;;;;;5056263;28;20040;-79
2022/07/13 03:50:31;;;;;;;9.43;7.00;;;20.10;99.90;;;;;;5055768;28;20051;-79
2022/07/13 03:52:56;;;;;;;15.38;7.72;;;20.10;99.90;;;;;;5040151;28;20040;-79
2022/07/13 03:55:22;;;;;;;10.70;7.40;;;20.10;99.90;;;;;;5056212;28;20089;-79
2022/07/13 03:57:47;;;;;;;9.35;6.15;;;20.20;99.90;;;;;;5056358;28;20037;-79
2022/07/13 04:00:13;;;;;;;11.85;8.02;;;20.10;99.90;;;;;;5056147;28;20068;-79
2022/07/13 04:02:39;;;;;;;11.65;7.05;;;20.10;99.90;;;;;;5056809;28;20047;-79
2022/07/13 04:05:05;;;;;;;10.63;6.45;;;20.10;99.90;;;;;;5056778;28;20090;-79
2022/07/13 04:07:31;;;;;;;10.65;7.13;;;20.20;99.90;;;;;;5056541;28;20492;-79
2022/07/13 04:09:56;;;;;;;9.32;7.20;;;20.20;99.90;;;;;;5057164;28;20039;-79
2022/07/13 04:12:22;;;;;;;10.80;7.05;;;20.20;99.90;;;;;;5039543;28;20044;-79
2022/07/13 04:14:49;;;;;;;9.07;6.88;;;20.20;99.90;;;;;;5056164;28;20098;-79
2022/07/13 04:17:14;;;;;;;9.52;7.38;;;20.20;99.90;;;;;;5055920;28;20541;-79
2022/07/13 04:19:40;;;;;;;10.60;7.10;;;20.20;99.90;;;;;;5055508;28;20032;-79
2022/07/13 04:22:06;;;;;;;9.63;7.45;;;20.30;99.90;;;;;;5039205;28;20032;-79
2022/07/13 04:24:31;;;;;;;11.25;6.40;;;20.30;99.90;;;;;;5055457;28;20059;-79
2022/07/13 04:26:57;;;;;;;10.13;6.90;;;20.30;99.90;;;;;;5055586;28;20124;-79
2022/07/13 04:29:23;;;;;;;8.73;6.40;;;20.30;99.90;;;;;;5039414;28;20123;-79
2022/07/13 04:31:48;;;;;;;9.52;5.90;;;20.30;99.90;;;;;;5055343;28;20556;-79
2022/07/13 04:34:14;;;;;;;9.00;5.95;;;20.30;99.90;;;;;;5055678;28;20144;-78
2022/07/13 04:36:43;;;;;;;7.43;4.90;;;20.30;99.90;;;;;;5054494;28;20072;-79
2022/07/13 04:39:09;;;;;;;7.38;5.18;;;20.40;99.90;;;;;;5055601;28;20041;-79
2022/07/13 04:41:35;;;;;;;9.18;4.65;;;20.50;99.90;;;;;;5038376;28;20051;-80
2022/07/13 04:44:00;;;;;;;6.53;4.30;;;20.50;99.90;;;;;;5038935;28;20131;-79
2022/07/13 04:46:27;;;;;;;8.55;4.28;;;20.50;99.90;;;;;;5038716;28;20041;-79
2022/07/13 04:48:53;;;;;;;7.93;4.30;;;20.60;99.90;;;;;;5055395;28;20063;-79
2022/07/13 04:51:18;;;;;;;5.88;4.68;;;20.70;99.90;;;;;;5038029;28;20037;-79
2022/07/13 04:53:45;;;;;;;7.20;4.38;;;20.70;99.90;;;;;;5073070;28;20044;-79
2022/07/13 04:56:11;;;;;;;5.70;4.50;;;20.70;99.90;;;;;;5062219;28;20086;-79
2022/07/13 04:58:37;;;;;;;4.78;3.80;;;20.80;99.90;;;;;;5054630;28;20536;-80
2022/07/13 05:01:06;;;;;;;7.78;4.75;;;20.80;99.90;;;;;;5055255;28;20043;-79
2022/07/13 05:03:33;;;;;;;9.10;5.47;;;20.80;99.90;;;;;;5055281;28;20075;-80
2022/07/13 05:05:59;;;;;;;7.63;5.10;;;20.90;99.90;;;;;;5038210;28;20041;-80
2022/07/13 05:08:25;;;;;;;7.13;5.65;;;20.90;99.90;;;;;;5072799;28;20072;-80
2022/07/13 05:10:51;;;;;;;9.05;5.57;;;21.00;99.90;;;;;;5072540;28;20045;-80
2022/07/13 05:13:17;;;;;;;7.57;4.78;;;21.00;99.90;;;;;;5073982;28;20056;-80
2022/07/13 05:15:43;;;;;;;9.95;6.20;;;21.00;99.90;;;;;;5055184;28;20412;-80
2022/07/13 05:18:08;;;;;;;7.55;4.80;;;21.10;99.90;;;;;;5071749;28;20067;-79
2022/07/13 05:20:34;;;;;;;8.15;5.15;;;21.10;99.90;;;;;;5054435;28;20492;-79
2022/07/13 05:23:00;;;;;;;8.50;5.95;;;21.20;99.90;;;;;;5038136;28;20048;-80
2022/07/13 05:25:25;;;;;;;6.30;5.10;;;21.30;99.90;;;;;;5054765;28;20048;-80
2022/07/13 05:27:51;;;;;;;6.50;5.13;;;21.30;99.90;;;;;;5054689;28;20113;-80
2022/07/13 05:30:16;;;;;;;7.78;5.57;;;21.40;99.90;;;;;;5037603;28;20170;-80
2022/07/13 05:32:42;;;;;;;9.45;5.88;;;21.40;99.90;;;;;;5071540;28;20040;-81
2022/07/13 05:35:08;;;;;;;13.30;6.07;;;21.40;99.90;;;;;;5072653;28;20147;-79
2022/07/13 05:37:34;;;;;;;8.55;5.18;;;21.50;99.90;;;;;;5072264;28;20149;-80
2022/07/13 05:39:59;;;;;;;7.07;5.07;;;21.50;99.90;;;;;;5054160;28;20032;-81
2022/07/13 05:42:28;;;;;;;7.72;4.63;;;21.60;99.90;;;;;;5072364;28;20071;-80
2022/07/13 05:44:54;;;;;;;5.97;4.72;;;21.80;99.90;;;;;;5054207;28;20029;-80
2022/07/13 05:47:19;;;;;;;8.30;4.93;;;22.00;99.90;;;;;;5053975;28;20400;-81
2022/07/13 05:49:45;;;;;;;5.80;4.78;;;22.10;99.90;;;;;;5070148;28;20055;-81
2022/07/13 05:52:11;;;;;;;6.20;4.40;;;22.20;99.90;;;;;;5054270;28;20066;-80
2022/07/13 05:54:37;;;;;;;4.78;4.10;;;22.30;99.90;;;;;;5054355;28;20566;-81
2022/07/13 05:57:03;;;;;;;5.85;3.90;;;22.40;99.90;;;;;;5072408;28;20036;-81
2022/07/13 05:59:30;;;;;;;4.28;3.53;;;22.40;99.90;;;;;;5053902;28;20444;-81
2022/07/13 06:01:55;;;;;;;4.57;3.40;;;22.50;99.90;;;;;;5054630;28;20080;-81
2022/07/13 06:04:21;;;;;;;5.53;3.97;;;22.60;99.90;;;;;;5054690;28;20068;-82
2022/07/13 06:06:47;;;;;;;4.38;3.70;;;22.70;99.90;;;;;;5054278;28;20098;-81
2022/07/13 06:09:13;;;;;;;7.32;4.03;;;22.70;99.90;;;;;;5054566;28;20036;-80
2022/07/13 06:11:39;;;;;;;47.80;33.20;;;22.80;99.90;;;;;;5054276;28;20483;-79
2022/07/13 06:14:06;;;;;;;7.53;4.93;;;22.90;99.90;;;;;;5072195;28;20064;-77
2022/07/13 06:16:31;;;;;;;4.30;3.22;;;23.00;99.90;;;;;;5055773;28;20036;-81
2022/07/13 06:18:57;;;;;;;8.60;3.90;;;23.10;99.90;;;;;;5055672;28;20041;-80
2022/07/13 06:21:23;;;;;;;4.50;3.42;;;23.30;99.90;;;;;;5087005;28;20048;-80
2022/07/13 06:23:48;;;;;;;4.35;3.42;;;23.50;99.90;;;;;;5095854;28;20043;-80
2022/07/13 06:26:14;;;;;;;8.15;3.55;;;23.70;99.90;;;;;;5091850;28;20040;-80
2022/07/13 06:28:40;;;;;;;7.22;3.08;;;23.90;99.90;;;;;;5071636;28;20130;-80
2022/07/13 06:31:05;;;;;;;3.42;3.05;;;24.00;99.90;;;;;;5087583;28;20050;-80
2022/07/13 06:33:31;;;;;;;5.55;2.67;;;24.10;99.90;;;;;;5070823;28;20392;-80
2022/07/13 06:35:56;;;;;;;8.90;3.67;;;24.20;99.90;;;;;;5072169;28;20150;-81
2022/07/13 06:38:22;;;;;;;4.35;3.42;;;24.30;99.90;;;;;;5071668;28;20072;-80
2022/07/13 06:40:49;;;;;;;3.97;3.58;;;24.40;99.90;;;;;;5083230;28;20035;-81
2022/07/13 06:43:15;;;;;;;3.42;3.13;;;24.50;99.90;;;;;;5094298;28;20051;-81
2022/07/13 06:45:41;;;;;;;5.05;3.50;;;24.60;99.90;;;;;;5101059;28;20047;-82
2022/07/13 06:48:07;;;;;;;4.35;3.53;;;24.80;99.90;;;;;;5096727;28;20024;-82
2022/07/13 06:50:32;;;;;;;3.80;3.35;;;24.90;99.90;;;;;;5073404;28;20075;-82
2022/07/13 06:52:58;;;;;;;5.60;3.80;;;25.10;99.90;;;;;;5071686;28;20067;-81
2022/07/13 06:55:24;;;;;;;3.55;3.00;;;25.40;99.90;;;;;;5071397;28;20040;-81
2022/07/13 06:57:51;;;;;;;5.60;3.83;;;25.80;99.90;;;;;;5068917;28;20044;-81
2022/07/13 07:00:16;;;;;;;4.60;3.40;;;26.30;99.90;;;;;;5068299;28;20048;-81
2022/07/13 07:02:42;;;;;;;4.30;3.03;;;26.60;99.90;;;;;;5072502;28;20050;-80
2022/07/13 07:05:09;;;;;;;8.07;3.40;;;26.70;99.90;;;;;;5071564;28;20036;-81
2022/07/13 07:07:36;;;;;;;6.57;5.07;;;26.80;99.90;;;;;;5073443;28;20061;-80
2022/07/13 07:10:01;;;;;;;5.95;4.35;;;27.00;99.90;;;;;;5069028;28;20040;-81
2022/07/13 07:12:27;;;;;;;8.02;4.15;;;27.10;99.90;;;;;;5086019;28;20036;-81
2022/07/13 07:14:53;;;;;;;5.68;4.60;;;27.10;99.90;;;;;;5067435;28;20036;-79
2022/07/13 07:17:18;;;;;;;9.48;6.20;;;26.90;99.90;;;;;;5067331;28;20494;-81
2022/07/13 07:19:47;;;;;;;11.60;5.95;;;26.70;99.90;;;;;;5083447;28;20036;-82
2022/07/13 07:22:13;;;;;;;6.47;4.82;;;26.70;99.90;;;;;;5065966;28;20086;-79
2022/07/13 07:24:40;;;;;;;9.05;6.00;;;26.90;99.90;;;;;;5066315;28;20468;-80
2022/07/13 07:27:07;;;;;;;8.23;5.40;;;26.90;99.90;;;;;;5065756;28;20105;-80
2022/07/13 07:29:39;;;;;;;12.05;6.75;;;26.90;99.90;;;;;;5050702;28;20485;-80
2022/07/13 07:32:05;;;;;;;8.57;6.13;;;26.90;99.90;;;;;;5064887;28;20171;-80
2022/07/13 07:34:32;;;;;;;8.30;5.90;;;27.20;99.90;;;;;;5050469;28;20054;-80
2022/07/13 07:36:57;;;;;;;8.82;6.30;;;27.80;99.90;;;;;;5049985;28;20036;-78
2022/07/13 07:39:23;;;;;;;6.90;5.28;;;28.10;99.90;;;;;;5050546;28;20040;-78
2022/07/13 07:41:49;;;;;;;7.70;5.63;;;28.60;99.90;;;;;;5064615;28;20046;-78
2022/07/13 07:44:14;;;;;;;10.82;6.25;;;28.80;99.60;;;;;;5068947;28;20044;-79
2022/07/13 07:46:41;;;;;;;7.65;6.25;;;28.80;98.90;;;;;;5092404;28;20039;-78
2022/07/13 07:49:06;;;;;;;9.63;7.38;;;28.70;98.90;;;;;;5069150;28;20044;-78
2022/07/13 07:51:32;;;;;;;14.23;7.63;;;28.50;98.50;;;;;;5068120;28;20415;-78
2022/07/13 07:53:58;;;;;;;10.43;6.38;;;28.50;98.70;;;;;;5069035;28;20044;-78
2022/07/13 07:56:24;;;;;;;9.82;6.65;;;28.60;98.60;;;;;;5088723;28;20102;-77
2022/07/13 07:58:50;;;;;;;8.73;6.85;;;28.90;98.30;;;;;;5072015;28;20094;-81
2022/07/13 08:01:16;;;;;;;8.18;5.90;;;29.30;97.80;;;;;;5053080;28;20529;-81
2022/07/13 08:03:42;;;;;;;8.60;5.78;;;29.70;96.90;;;;;;5067358;28;20047;-80
2022/07/13 08:06:08;;;;;;;8.40;5.82;;;29.80;96.10;;;;;;5055858;28;20127;-81
2022/07/13 08:08:33;;;;;;;9.85;6.63;;;29.90;95.30;;;;;;5052485;28;20036;-81
2022/07/13 08:11:01;;;;;;;9.90;5.90;;;29.90;94.00;;;;;;5053169;28;20487;-81
2022/07/13 08:13:27;;;;;;;8.73;5.72;;;29.90;94.20;;;;;;5069209;28;20082;-81
2022/07/13 08:15:53;;;;;;;6.75;4.93;;;30.00;94.40;;;;;;5061715;28;20072;-81
2022/07/13 08:18:18;;;;;;;7.70;5.68;;;30.20;94.00;;;;;;5055982;28;20514;-82
2022/07/13 08:20:44;;;;;;;9.45;5.88;;;30.30;93.30;;;;;;5039373;28;20086;-81
2022/07/13 08:25:54;;;;;;;6.32;5.70;;;30.60;92.30;;;;;;5074135;28;20448;-82
2022/07/13 08:28:19;;;;;;;8.38;4.55;;;30.60;91.70;;;;;;5089197;28;20040;-81
2022/07/13 08:30:45;;;;;;;5.65;4.85;;;30.60;91.80;;;;;;5066442;28;20051;-81
2022/07/13 08:33:11;;;;;;;6.53;4.88;;;30.60;91.60;;;;;;5059051;28;20403;-81
2022/07/13 08:38:36;;;;;;;9.07;5.43;;;30.60;91.80;;;;;;5068369;28;20044;-81
2022/07/13 08:41:02;;;;;;;7.82;4.80;;;30.50;91.50;;;;;;5071775;28;20036;-81
2022/07/13 08:43:28;;;;;;;6.82;4.47;;;30.40;91.40;;;;;;5068896;28;20036;-82
2022/07/13 08:45:54;;;;;;;7.18;4.35;;;30.50;91.70;;;;;;5054343;28;20532;-82
2022/07/13 08:48:29;;;;;;;6.85;4.53;;;30.50;91.70;;;;;;5072401;28;20489;-81
2022/07/13 08:50:55;;;;;;;6.78;4.47;;;30.60;91.60;;;;;;5056664;28;20097;-81
2022/07/13 08:53:21;;;;;;;7.07;4.00;;;30.60;91.10;;;;;;5056263;28;20111;-81
2022/07/13 08:55:49;;;;;;;7.88;4.47;;;30.70;91.10;;;;;;5070936;28;20040;-81
2022/07/13 08:58:16;;;;;;;6.00;4.22;;;30.70;90.10;;;;;;5070179;28;20075;-82
2022/07/13 09:00:42;;;;;;;5.57;3.58;;;30.70;90.10;;;;;;5069528;28;20065;-81
2022/07/13 09:03:08;;;;;;;6.40;4.10;;;30.60;90.40;;;;;;5066844;28;20512;-82
2022/07/13 09:05:34;;;;;;;6.40;3.97;;;30.70;89.90;;;;;;5069572;28;20380;-81
2022/07/13 09:08:02;;;;;;;7.53;3.58;;;30.70;89.40;;;;;;5091461;28;20115;-81
2022/07/13 09:10:29;;;;;;;6.07;3.90;;;30.60;88.80;;;;;;5070572;28;20135;-81
2022/07/13 09:12:54;;;;;;;7.93;3.88;;;30.70;88.20;;;;;;5070434;28;20040;-80
2022/07/13 09:15:20;;;;;;;6.85;4.00;;;30.70;87.40;;;;;;5089926;28;20032;-82
2022/07/13 09:17:47;;;;;;;6.13;3.80;;;30.80;87.70;;;;;;5069789;28;20543;-81
2022/07/13 09:20:12;;;;;;;4.78;3.80;;;30.80;88.20;;;;;;5072761;28;20057;-83
2022/07/13 09:23:01;;;;;;;5.93;3.63;;;30.80;87.80;;;;;;5072115;28;20051;-81
2022/07/13 09:25:32;;;;;;;7.22;3.63;;;31.00;85.10;;;;;;5067454;28;20048;-81
2022/07/13 09:28:08;;;;;;;7.72;3.92;;;30.90;86.80;;;;;;5070504;28;20046;-80
2022/07/13 09:30:42;;;;;;;5.40;4.20;;;31.20;85.80;;;;;;5068604;28;20059;-82
2022/07/13 09:33:08;;;;;;;7.68;3.65;;;31.40;85.00;;;;;;5068409;28;20089;-81
2022/07/13 09:35:46;;;;;;;13.25;5.70;;;31.50;85.40;;;;;;5055005;28;20071;-81
2022/07/13 09:38:28;;;;;;;6.60;4.45;;;31.50;82.60;;;;;;5094325;28;20039;-84
2022/07/13 09:40:54;;;;;;;7.88;4.60;;;31.50;82.60;;;;;;5079603;28;20094;-81
2022/07/13 09:46:10;;;;;;;19.98;9.70;;;31.30;83.40;;;;;;5071194;28;20082;-82
2022/07/13 09:48:39;;;;;;;5.22;3.95;;;31.40;83.40;;;;;;5087294;28;20048;-82
2022/07/13 09:51:09;;;;;;;5.22;4.20;;;31.40;81.60;;;;;;5097312;28;20126;-80
2022/07/13 09:53:36;;;;;;;7.03;4.18;;;31.20;81.30;;;;;;5078785;28;20122;-81
2022/07/13 09:56:04;;;;;;;5.57;3.80;;;31.20;81.20;;;;;;5076709;28;20039;-82
2022/07/13 09:58:37;;;;;;;5.82;3.40;;;31.20;80.80;;;;;;5059088;28;20088;-81
2022/07/13 10:01:03;;;;;;;5.60;4.00;;;31.10;81.60;;;;;;5057172;28;20432;-79
2022/07/13 10:03:29;;;;;;;7.10;3.60;;;31.10;80.70;;;;;;5073800;28;20078;-82
2022/07/13 10:05:56;;;;;;;5.65;3.40;;;31.30;81.60;;;;;;5092077;28;20069;-81
2022/07/13 10:08:22;;;;;;;9.90;4.05;;;31.40;81.10;;;;;;5074552;28;20051;-82
2022/07/13 10:10:50;;;;;;;8.43;4.20;;;31.30;81.10;;;;;;5072451;28;20047;-82
2022/07/13 10:13:17;;;;;;;5.03;3.15;;;31.30;80.80;;;;;;5070974;28;20490;-81
2022/07/13 10:15:44;;;;;;;6.35;3.85;;;31.30;81.30;;;;;;5091600;28;20430;-82
2022/07/13 10:18:16;;;;;;;4.60;3.55;;;31.30;80.40;;;;;;5065613;28;20064;-81
2022/07/13 10:20:50;;;;;;;8.52;4.53;;;31.40;79.20;;;;;;5053901;28;20047;-82
2022/07/13 10:23:32;;;;;;;7.00;3.20;;;31.50;77.20;;;;;;5057319;28;20051;-81
2022/07/13 10:25:58;;;;;;;5.72;3.80;;;31.60;74.50;;;;;;5091431;28;20076;-80
2022/07/13 10:28:23;;;;;;;5.50;3.20;;;31.60;75.40;;;;;;5057091;28;20116;-81
2022/07/13 10:30:49;;;;;;;7.97;5.25;;;31.40;75.10;;;;;;5090834;28;20071;-80
2022/07/13 10:33:24;;;;;;;5.35;3.10;;;31.40;73.80;;;;;;5073086;28;20506;-81
2022/07/13 10:35:55;;;;;;;4.65;3.53;;;31.40;71.50;;;;;;5089949;28;20036;-81
2022/07/13 10:38:26;;;;;;;5.35;3.10;;;31.30;72.60;;;;;;5071904;28;20055;-81
2022/07/13 10:41:21;;;;;;;4.05;3.00;;;31.20;73.20;;;;;;5057026;28;20048;-81
2022/07/13 10:44:23;;;;;;;3.20;2.38;;;31.30;69.80;;;;;;5074400;28;20051;-81
2022/07/13 10:46:49;;;;;;;5.30;2.30;;;31.30;70.20;;;;;;5073135;28;20055;-81
2022/07/13 10:49:30;;;;;;;7.75;3.40;;;31.20;71.40;;;;;;5057237;28;20044;-83
2022/07/13 10:52:16;;;;;;;6.90;2.20;;;31.10;70.10;;;;;;5057148;28;20418;-82
2022/07/13 10:55:06;;;;;;;6.07;2.90;;;31.20;70.40;;;;;;5073042;28;20093;-81
2022/07/13 10:57:33;;;;;;;5.75;1.90;;;31.20;74.40;;;;;;5073266;28;20241;-81
2022/07/13 11:00:19;;;;;;;6.22;2.60;;;31.40;71.50;;;;;;5056139;28;20036;-83
2022/07/13 11:02:50;;;;;;;4.97;1.83;;;31.50;71.50;;;;;;5073462;28;20115;-82
2022/07/13 11:05:21;;;;;;;4.03;2.17;;;31.60;71.60;;;;;;5072924;28;20047;-84
2022/07/13 11:07:48;;;;;;;2.63;2.05;;;31.60;69.00;;;;;;5073066;28;20048;-81
2022/07/13 11:10:22;;;;;;;3.78;2.50;;;31.60;68.50;;;;;;5092346;28;20039;-82
2022/07/13 11:13:01;;;;;;;3.78;2.00;;;31.40;65.60;;;;;;5073704;28;20040;-82
2022/07/13 11:15:48;;;;;;;2.85;2.10;;;31.40;69.30;;;;;;5056668;28;20530;-82
2022/07/13 11:18:32;;;;;;;4.70;2.22;;;31.70;67.00;;;;;;5073049;28;20048;-83
2022/07/13 11:21:03;;;;;;;5.05;1.92;;;31.70;66.80;;;;;;5073322;28;20095;-81
2022/07/13 11:26:42;;;;;;;4.95;1.63;;;31.60;66.40;;;;;;5073071;28;20052;-81
2022/07/13 11:29:20;;;;;;;4.45;2.03;;;31.80;66.30;;;;;;5056401;28;20584;-81
2022/07/13 11:31:53;;;;;;;3.63;1.83;;;32.10;64.90;;;;;;5072792;28;20079;-81
2022/07/13 11:34:19;;;;;;;2.47;1.38;;;32.30;64.10;;;;;;5074092;28;20466;-81
2022/07/13 11:36:46;;;;;;;3.60;1.52;;;32.40;62.70;;;;;;5057150;28;20079;-81
2022/07/13 11:39:26;;;;;;;1.85;1.30;;;32.20;61.10;;;;;;5055993;28;20040;-80
2022/07/13 11:41:56;;;;;;;1.77;1.23;;;31.90;59.00;;;;;;5091190;28;20103;-80
2022/07/13 11:44:29;;;;;;;2.17;1.38;;;31.50;59.80;;;;;;5070662;28;20046;-79
2022/07/13 11:46:57;;;;;;;1.60;1.42;;;31.10;60.60;;;;;;5099691;28;20052;-80
2022/07/13 11:49:24;;;;;;;1.30;1.20;;;31.00;59.60;;;;;;5084323;28;20051;-80
2022/07/13 11:51:50;;;;;;;2.10;1.50;;;31.00;60.20;;;;;;5076425;28;20040;-79
2022/07/13 11:54:18;;;;;;;2.40;1.40;;;31.30;60.00;;;;;;5076458;28;20052;-80
2022/07/13 11:56:52;;;;;;;3.30;1.48;;;31.60;60.70;;;;;;5076328;28;20078;-81
2022/07/13 11:59:38;;;;;;;2.45;1.73;;;31.80;60.30;;;;;;5059689;28;20043;-80
2022/07/13 12:02:08;;;;;;;5.28;1.50;;;32.00;59.40;;;;;;5094279;28;20059;-81
2022/07/13 12:04:34;;;;;;;2.63;1.60;;;32.00;59.80;;;;;;5076153;28;20123;-82
2022/07/13 12:07:16;;;;;;;4.68;1.63;;;31.90;59.80;;;;;;5094050;28;20042;-81
2022/07/13 12:09:55;;;;;;;3.95;1.67;;;31.70;57.90;;;;;;5075912;28;20036;-81
2022/07/13 12:12:26;;;;;;;4.20;1.63;;;31.80;59.40;;;;;;5075910;28;20169;-82
2022/07/13 12:14:53;;;;;;;1.70;1.50;;;31.90;59.30;;;;;;5059200;28;20044;-81
2022/07/13 12:17:20;;;;;;;2.25;1.48;;;32.10;58.80;;;;;;5075506;28;20524;-80
2022/07/13 12:19:46;;;;;;;2.42;1.42;;;32.10;58.30;;;;;;5075653;28;20084;-80
2022/07/13 12:22:12;;;;;;;4.25;1.73;;;32.30;57.70;;;;;;5059956;28;20624;-80
2022/07/13 12:24:47;;;;;;;3.03;1.50;;;32.30;57.50;;;;;;5060391;28;20044;-81
2022/07/13 12:27:27;;;;;;;3.67;1.42;;;32.20;56.70;;;;;;5076909;28;20036;-81
2022/07/13 12:30:10;;;;;;;3.60;1.58;;;32.20;56.70;;;;;;5075993;28;20206;-80
2022/07/13 12:32:58;;;;;;;3.45;1.58;;;32.20;56.90;;;;;;5076995;28;20048;-82
2022/07/13 12:35:30;;;;;;;4.70;1.80;;;32.30;56.50;;;;;;5076102;28;20375;-82
2022/07/13 12:37:58;;;;;;;1.80;1.70;;;31.90;56.60;;;;;;5075553;28;20093;-81
2022/07/13 12:40:37;;;;;;;2.30;1.77;;;31.50;57.40;;;;;;5058849;28;20068;-80
2022/07/13 12:43:03;;;;;;;4.35;1.83;;;31.20;61.60;;;;;;5076206;28;20040;-80
2022/07/13 12:45:32;;;;;;;1.92;1.70;;;31.00;59.60;;;;;;5076193;28;20385;-81
2022/07/13 12:47:58;;;;;;;4.15;2.78;;;30.80;59.60;;;;;;5075975;28;20123;-80
2022/07/13 12:50:30;;;;;;;3.47;2.05;;;30.70;60.00;;;;;;5059280;28;20123;-79
2022/07/13 12:53:00;;;;;;;7.25;2.08;;;30.50;60.60;;;;;;5075636;28;20090;-82
2022/07/13 12:55:26;;;;;;;4.20;2.13;;;30.40;62.00;;;;;;5077144;28;20059;-80
2022/07/13 12:57:52;;;;;;;6.70;2.38;;;30.50;62.30;;;;;;5077120;28;20044;-79
2022/07/13 13:00:25;;;;;;;5.75;1.83;;;30.50;62.30;;;;;;5078329;28;20057;-81